Kezdőlap
METAR-TAF:

METAR-TAF

Repülőterek :

Orsk, Oroszország

földrajzi szélesség: 51-04-18N, földrajzi hosszúság: 058-35-48E, magasság: 277 m

Jelenlegi meteorológiai megfigyelések

A jelentés 1 órával és 0 perccel ezelõtt készült, 10:00 UTC
Észak-északkeleti szél 6 kt
Hőmérséklet -6°C
Páratartalom 73%
Légköri nyomás 1024 hPa
Látótávolság 10 km, vagy több
felhőtlen 1500 m magasságban, és nincs gomolyfelhõ

METAR: UWOR 131000Z 02003MPS CAVOK M06/M10 Q1024 R07/150055 NOSIG RMK QFE743/0991

Idő: 16:00 (11:00 UTC)

Előrejelzés

A jelentés 3 órával és 11 perccel ezelõtt készült, 07:49 UTC
Az előrejelzés 13-én 09 óra UTC és 13-én 18 óra UTC között érvényes
Északi szél 6 kt
Látótávolság 10 km, vagy több
Szórványos felhőzet 4000 lábon

TAF: UWOR 130749Z 1309/1318 35003MPS 9999 SCT040 TXM08/1310Z TNM12/1318Z

Meteorológiai megfigyelések és előrejelzések több, mint 4000 repülőtéren (METAR és TAF jelentéseket).

A térképen piros és sárga pontok jelzik az elérhető meteorológiai állomásokat.

Mozgassa az egeret a pont fölött, hogy megjelenjen az állomás neve.

Azután kattintson az időjárási megfigyelések és előrejelzések megtekintéséhez.

A térkép megváltoztatása: kattintson a fekete keresztel jelölt zöld gombra ráközelítéshez, a vonallal jelölt zöld gombra távolításhoz, vagy a zöld nyilakra a szomszédos térképek eléréséhez.


METAR-TAF: